createdAt,value
2022-10-20T00:01:52.500Z,4.40
2022-10-20T00:04:25.781Z,4.40
2022-10-20T00:06:55.010Z,4.30
2022-10-20T00:09:40.652Z,4.40
2022-10-20T00:12:07.721Z,4.30
2022-10-20T00:14:47.357Z,4.40
2022-10-20T00:17:14.333Z,4.30
2022-10-20T00:19:41.195Z,4.30
2022-10-20T00:22:09.043Z,4.30
2022-10-20T00:24:35.975Z,4.30
2022-10-20T00:27:03.110Z,4.50
2022-10-20T00:29:30.263Z,4.50
2022-10-20T00:31:58.377Z,4.50
2022-10-20T00:34:26.502Z,4.50
2022-10-20T00:36:53.463Z,4.50
2022-10-20T00:39:21.146Z,4.50
2022-10-20T00:41:48.135Z,4.40
2022-10-20T00:44:49.941Z,4.40
2022-10-20T00:47:29.806Z,4.30
2022-10-20T00:50:15.030Z,4.30
2022-10-20T00:52:51.313Z,4.10
2022-10-20T00:55:26.809Z,4.20
2022-10-20T00:57:56.389Z,4.20
2022-10-20T01:00:27.009Z,4.20
2022-10-20T01:03:00.719Z,4.10
2022-10-20T01:05:30.477Z,4.20
2022-10-20T01:07:57.473Z,4.20
2022-10-20T01:10:32.598Z,4.20
2022-10-20T01:13:18.495Z,4.30
2022-10-20T01:16:01.583Z,4.30
2022-10-20T01:19:11.514Z,4.20
2022-10-20T01:22:06.474Z,4.20
2022-10-20T01:24:55.086Z,4.20
2022-10-20T01:27:43.060Z,4.10
2022-10-20T01:30:21.375Z,3.90
2022-10-20T01:32:53.538Z,3.80
2022-10-20T01:39:11.796Z,3.90
2022-10-20T01:41:55.696Z,3.90
2022-10-20T01:44:26.693Z,4.00
2022-10-20T01:47:01.326Z,4.10
2022-10-20T01:49:30.135Z,4.00
2022-10-20T01:52:01.660Z,4.00
2022-10-20T01:54:32.803Z,4.00
2022-10-20T01:57:11.662Z,4.00
2022-10-20T02:00:00.487Z,4.00
2022-10-20T02:02:59.583Z,3.90
2022-10-20T02:06:09.565Z,3.90
2022-10-20T02:08:42.662Z,3.90
2022-10-20T02:11:59.269Z,4.00
2022-10-20T02:14:35.956Z,3.90
2022-10-20T02:17:26.357Z,3.90
2022-10-20T02:19:53.868Z,3.90
2022-10-20T02:22:21.972Z,3.90
2022-10-20T02:24:55.137Z,4.00
2022-10-20T02:27:30.231Z,3.80
2022-10-20T02:30:07.485Z,3.80
2022-10-20T02:32:37.959Z,3.80
2022-10-20T02:35:10.599Z,3.70
2022-10-20T02:37:41.228Z,3.60
2022-10-20T02:40:08.737Z,3.60
2022-10-20T02:42:35.940Z,3.60
2022-10-20T02:45:03.879Z,3.60
2022-10-20T02:47:31.559Z,3.60
2022-10-20T02:49:59.202Z,3.60
2022-10-20T02:52:44.576Z,3.70
2022-10-20T02:55:11.929Z,3.60
2022-10-20T02:57:39.679Z,3.60
2022-10-20T03:00:08.628Z,3.70
2022-10-20T03:02:35.667Z,3.60
2022-10-20T03:05:06.574Z,3.60
2022-10-20T03:07:40.149Z,3.60
2022-10-20T03:10:07.737Z,3.50
2022-10-20T03:12:34.913Z,3.50
2022-10-20T03:15:05.500Z,3.50
2022-10-20T03:17:38.239Z,3.50
2022-10-20T03:20:06.625Z,3.50
2022-10-20T03:22:37.620Z,3.40
2022-10-20T03:25:05.017Z,3.40
2022-10-20T03:27:35.238Z,3.30
2022-10-20T03:30:02.695Z,3.20
2022-10-20T03:32:30.051Z,3.20
2022-10-20T03:35:00.233Z,3.20
2022-10-20T03:37:27.523Z,3.30
2022-10-20T03:39:54.740Z,3.00
2022-10-20T03:42:24.445Z,3.00
2022-10-20T03:44:51.595Z,3.10
2022-10-20T03:47:18.853Z,3.10
2022-10-20T03:49:45.938Z,3.20
2022-10-20T03:52:12.990Z,3.20
2022-10-20T03:54:41.160Z,3.10
2022-10-20T03:57:08.416Z,3.20
2022-10-20T03:59:35.424Z,3.30
2022-10-20T04:02:02.662Z,3.20
2022-10-20T04:04:29.894Z,3.10
2022-10-20T04:06:56.848Z,3.00
2022-10-20T04:09:23.698Z,2.80
2022-10-20T04:11:50.799Z,2.80
2022-10-20T04:14:17.808Z,2.80
2022-10-20T04:16:44.960Z,2.90
2022-10-20T04:19:12.052Z,2.90
2022-10-20T04:21:39.129Z,3.00
2022-10-20T04:24:07.467Z,3.00
2022-10-20T04:26:34.411Z,3.00
2022-10-20T04:29:01.483Z,3.00
2022-10-20T04:31:30.962Z,3.00
2022-10-20T04:34:04.865Z,2.90
2022-10-20T04:36:32.304Z,2.90
2022-10-20T04:39:02.260Z,2.90
2022-10-20T04:41:29.403Z,2.90
2022-10-20T04:43:56.413Z,2.80
2022-10-20T04:46:23.535Z,2.80
2022-10-20T04:48:50.495Z,2.60
2022-10-20T04:51:17.495Z,2.70
2022-10-20T04:53:44.507Z,2.70
2022-10-20T04:56:14.720Z,2.80
2022-10-20T04:58:41.707Z,2.80
2022-10-20T05:01:10.196Z,2.70
2022-10-20T05:03:37.263Z,2.80
2022-10-20T05:06:17.194Z,2.80
2022-10-20T05:09:17.827Z,2.60
2022-10-20T05:11:54.009Z,2.80
2022-10-20T05:14:21.859Z,2.80
2022-10-20T05:16:48.859Z,2.70
2022-10-20T05:19:16.521Z,2.70
2022-10-20T05:21:44.910Z,2.70
2022-10-20T05:24:18.220Z,2.80
2022-10-20T05:26:47.950Z,2.70
2022-10-20T05:29:32.807Z,2.80
2022-10-20T05:32:11.282Z,2.70
2022-10-20T05:34:41.815Z,2.70
2022-10-20T05:37:46.336Z,2.80
2022-10-20T05:40:13.445Z,2.80
2022-10-20T05:42:43.563Z,2.80
2022-10-20T05:45:21.392Z,2.80
2022-10-20T05:47:48.369Z,2.90
2022-10-20T05:50:15.705Z,2.90
2022-10-20T05:52:42.695Z,2.80
2022-10-20T05:55:10.573Z,2.90
2022-10-20T05:57:40.433Z,2.90
2022-10-20T06:00:08.075Z,3.00
2022-10-20T06:02:35.348Z,2.90
2022-10-20T06:05:02.427Z,2.90
2022-10-20T06:07:29.347Z,3.00
2022-10-20T06:09:56.196Z,3.00
2022-10-20T06:12:23.377Z,3.00
2022-10-20T06:14:50.318Z,3.00
2022-10-20T06:17:17.843Z,3.00
2022-10-20T06:19:47.666Z,3.10
2022-10-20T06:22:14.734Z,3.10
2022-10-20T06:24:41.870Z,3.30
2022-10-20T06:27:08.895Z,3.30
2022-10-20T06:29:38.521Z,3.50
2022-10-20T06:32:06.772Z,3.60
2022-10-20T06:34:36.812Z,3.70
2022-10-20T06:37:12.978Z,3.80
2022-10-20T06:39:39.816Z,3.80
2022-10-20T06:42:09.635Z,3.80
2022-10-20T06:44:39.002Z,3.90
2022-10-20T06:47:10.256Z,4.20
2022-10-20T06:49:37.370Z,4.10
2022-10-20T06:52:05.750Z,4.20
2022-10-20T06:54:32.707Z,4.30
2022-10-20T06:56:59.711Z,4.40
2022-10-20T06:59:26.802Z,4.60
2022-10-20T07:01:53.784Z,4.60
2022-10-20T07:04:21.035Z,4.50
2022-10-20T07:06:48.096Z,4.60
2022-10-20T07:09:22.596Z,4.60
2022-10-20T07:11:53.250Z,4.50
2022-10-20T07:14:20.685Z,4.60
2022-10-20T07:19:44.802Z,4.50
2022-10-20T07:22:20.724Z,4.50
2022-10-20T07:25:08.086Z,4.60
2022-10-20T07:30:22.128Z,4.70
2022-10-20T07:33:01.670Z,4.70
2022-10-20T07:36:11.249Z,4.80
2022-10-20T07:38:38.110Z,4.90
2022-10-20T07:41:05.432Z,5.10
2022-10-20T07:43:32.353Z,5.10
2022-10-20T07:45:59.251Z,5.10
2022-10-20T07:48:27.199Z,5.20
2022-10-20T07:51:04.264Z,5.40
2022-10-20T07:53:31.764Z,6.10
2022-10-20T07:56:01.936Z,6.90
2022-10-20T07:58:34.623Z,7.50
2022-10-20T08:01:03.570Z,8.00
2022-10-20T08:03:30.783Z,8.30
2022-10-20T08:06:05.119Z,8.50
2022-10-20T08:08:33.350Z,8.60
2022-10-20T08:11:10.486Z,8.90
2022-10-20T08:13:52.792Z,9.10
2022-10-20T08:16:29.020Z,9.30
2022-10-20T08:21:45.681Z,9.80
2022-10-20T08:24:12.535Z,10.00
2022-10-20T08:26:42.288Z,10.20
2022-10-20T08:29:09.701Z,10.30
2022-10-20T08:31:44.481Z,10.10
2022-10-20T08:34:11.574Z,10.10
2022-10-20T08:36:38.628Z,10.30
2022-10-20T08:39:06.496Z,10.60
2022-10-20T08:42:02.699Z,10.70
2022-10-20T08:44:49.628Z,10.90
2022-10-20T08:47:42.873Z,11.10
2022-10-20T08:50:13.290Z,11.20
2022-10-20T08:52:42.619Z,11.30
2022-10-20T08:55:32.843Z,11.60
2022-10-20T08:58:06.985Z,12.00
2022-10-20T09:00:37.571Z,11.80
2022-10-20T09:03:30.974Z,11.60
2022-10-20T09:06:13.284Z,11.40
2022-10-20T09:08:40.816Z,11.30
2022-10-20T09:11:12.007Z,11.30
2022-10-20T09:13:41.911Z,11.10
2022-10-20T09:16:41.784Z,10.60
2022-10-20T09:19:21.358Z,10.60
2022-10-20T09:21:58.249Z,10.60
2022-10-20T09:24:30.315Z,10.70
2022-10-20T09:27:16.029Z,10.50
2022-10-20T09:29:50.642Z,10.20
2022-10-20T09:32:48.773Z,9.90
2022-10-20T09:35:47.697Z,10.00
2022-10-20T09:38:29.814Z,10.20
2022-10-20T09:41:18.323Z,10.50
2022-10-20T09:44:08.848Z,10.30
2022-10-20T09:46:44.960Z,10.30
2022-10-20T09:49:33.390Z,10.70
2022-10-20T09:52:02.108Z,10.80
2022-10-20T09:54:30.038Z,11.10
2022-10-20T09:57:15.007Z,11.10
2022-10-20T09:59:47.294Z,11.30
2022-10-20T10:02:23.492Z,11.30
2022-10-20T10:04:52.604Z,11.20
2022-10-20T10:10:19.812Z,11.30
2022-10-20T10:13:56.433Z,11.60
2022-10-20T10:16:26.418Z,12.30
2022-10-20T10:19:01.802Z,13.30
2022-10-20T10:21:43.635Z,14.10
2022-10-20T10:39:30.340Z,17.80
2022-10-20T10:42:45.382Z,18.30
2022-10-20T10:49:20.302Z,17.50
2022-10-20T10:52:25.203Z,16.80
2022-10-20T10:55:21.218Z,16.20
2022-10-20T10:58:22.464Z,16.10
2022-10-20T11:00:58.235Z,15.90
2022-10-20T11:03:49.112Z,15.50
2022-10-20T11:06:19.183Z,14.70
2022-10-20T11:08:49.104Z,14.70
2022-10-20T11:11:19.035Z,14.60
2022-10-20T11:14:24.302Z,14.50
2022-10-20T11:17:00.660Z,14.90
2022-10-20T11:19:51.975Z,15.60
2022-10-20T11:22:36.908Z,16.50
2022-10-20T11:25:46.065Z,17.50
2022-10-20T11:28:31.250Z,18.50
2022-10-20T11:30:59.986Z,18.80
2022-10-20T11:33:41.467Z,18.80
2022-10-20T11:36:18.375Z,19.10
2022-10-20T11:38:50.718Z,18.90
2022-10-20T11:41:38.610Z,18.30
2022-10-20T11:44:08.168Z,17.80
2022-10-20T11:46:38.372Z,16.80
2022-10-20T11:49:05.604Z,16.20
2022-10-20T11:51:32.619Z,16.30
2022-10-20T11:54:05.273Z,17.00
2022-10-20T11:57:14.957Z,17.50
2022-10-20T12:00:13.525Z,18.60
2022-10-20T12:03:03.565Z,19.40
2022-10-20T12:05:49.192Z,20.10
2022-10-20T12:08:31.204Z,20.60
2022-10-20T12:11:23.460Z,20.80
2022-10-20T12:14:19.116Z,21.10
2022-10-20T12:16:52.371Z,21.50
2022-10-20T12:19:25.306Z,22.00
2022-10-20T12:22:01.135Z,21.60
2022-10-20T12:24:40.039Z,20.40
2022-10-20T12:27:10.032Z,19.10
2022-10-20T12:29:37.124Z,18.10
2022-10-20T12:32:24.292Z,17.40
2022-10-20T12:34:54.560Z,16.80
2022-10-20T12:37:33.517Z,16.40
2022-10-20T12:40:09.525Z,15.90
2022-10-20T12:42:48.086Z,15.60
2022-10-20T12:45:20.932Z,15.20
2022-10-20T12:47:59.109Z,15.10
2022-10-20T12:50:45.494Z,14.90
2022-10-20T12:53:18.552Z,14.70
2022-10-20T12:55:53.664Z,14.40
2022-10-20T12:58:20.606Z,14.20
2022-10-20T13:00:47.495Z,14.00
2022-10-20T13:03:44.125Z,13.60
2022-10-20T13:06:23.618Z,13.40
2022-10-20T13:09:10.600Z,13.20
2022-10-20T13:11:44.594Z,13.10
2022-10-20T13:14:14.428Z,13.00
2022-10-20T13:16:56.623Z,13.00
2022-10-20T13:19:33.727Z,12.90
2022-10-20T13:22:35.596Z,12.70
2022-10-20T13:25:05.860Z,12.60
2022-10-20T13:27:32.817Z,12.50
2022-10-20T13:29:59.716Z,12.50
2022-10-20T13:33:10.938Z,12.40
2022-10-20T13:35:56.544Z,12.30
2022-10-20T13:38:51.376Z,12.20
2022-10-20T13:41:36.233Z,12.10
2022-10-20T13:44:22.635Z,12.20
2022-10-20T13:47:16.660Z,12.20
2022-10-20T13:50:06.502Z,12.20
2022-10-20T13:52:38.075Z,12.20
2022-10-20T13:55:07.629Z,12.20
2022-10-20T13:57:36.282Z,12.10
2022-10-20T14:00:17.616Z,12.10
2022-10-20T14:02:54.463Z,12.00
2022-10-20T14:05:22.811Z,12.00
2022-10-20T14:07:50.820Z,11.90
2022-10-20T14:10:22.451Z,11.80
2022-10-20T14:12:49.336Z,11.70
2022-10-20T14:15:28.548Z,11.80
2022-10-20T14:18:06.817Z,11.70
2022-10-20T14:20:39.282Z,11.60
2022-10-20T14:23:06.804Z,11.50
2022-10-20T14:25:34.005Z,11.50
2022-10-20T14:28:03.953Z,11.50
2022-10-20T14:30:38.718Z,11.40
2022-10-20T14:33:14.306Z,11.40
2022-10-20T14:35:45.179Z,11.40
2022-10-20T14:38:18.863Z,11.30
2022-10-20T14:40:56.888Z,11.20
2022-10-20T14:43:42.544Z,11.20
2022-10-20T14:46:12.817Z,11.10
2022-10-20T14:48:46.097Z,11.10
2022-10-20T14:51:32.269Z,11.00
2022-10-20T14:54:14.307Z,11.00
2022-10-20T14:56:49.066Z,10.90
2022-10-20T14:59:22.117Z,10.90
2022-10-20T15:02:13.291Z,10.90
2022-10-20T15:04:44.009Z,10.90
2022-10-20T15:07:45.217Z,10.90
2022-10-20T15:10:17.928Z,10.80
2022-10-20T15:12:49.537Z,10.80
2022-10-20T15:15:18.840Z,10.70
2022-10-20T15:17:48.290Z,10.70
2022-10-20T15:20:33.487Z,10.60
2022-10-20T15:23:05.279Z,10.60
2022-10-20T15:25:45.511Z,10.40
2022-10-20T15:28:37.221Z,10.50
2022-10-20T15:31:17.653Z,10.40
2022-10-20T15:33:44.578Z,10.40
2022-10-20T15:36:32.093Z,10.20
2022-10-20T15:38:59.706Z,10.20
2022-10-20T15:41:32.465Z,10.20
2022-10-20T15:44:17.466Z,10.20
2022-10-20T15:46:47.151Z,10.20
2022-10-20T15:49:14.456Z,10.20
2022-10-20T15:51:44.324Z,10.10
2022-10-20T15:54:17.345Z,10.10
2022-10-20T15:56:44.515Z,10.20
2022-10-20T15:59:11.396Z,10.10
2022-10-20T16:01:38.315Z,10.20
2022-10-20T16:04:31.662Z,10.20
2022-10-20T16:07:02.604Z,10.10
2022-10-20T16:09:30.223Z,10.20
2022-10-20T16:11:57.129Z,10.10
2022-10-20T16:14:24.021Z,10.10
2022-10-20T16:16:51.092Z,10.10
2022-10-20T16:19:18.061Z,10.10
2022-10-20T16:21:45.008Z,10.00
2022-10-20T16:24:11.869Z,10.00
2022-10-20T16:26:38.726Z,10.00
2022-10-20T16:29:05.538Z,10.00
2022-10-20T16:31:32.384Z,10.00
2022-10-20T16:34:00.531Z,10.00
2022-10-20T16:36:27.562Z,10.00
2022-10-20T16:38:56.097Z,10.00
2022-10-20T16:41:23.115Z,10.00
2022-10-20T16:43:49.911Z,9.90
2022-10-20T16:46:16.829Z,9.90
2022-10-20T16:48:47.496Z,9.90
2022-10-20T16:51:15.609Z,9.80
2022-10-20T16:53:42.595Z,9.80
2022-10-20T16:56:09.504Z,9.80
2022-10-20T16:58:36.542Z,9.70
2022-10-20T17:01:10.894Z,9.70
2022-10-20T17:06:15.455Z,9.70
2022-10-20T17:08:42.343Z,9.60
2022-10-20T17:11:12.342Z,9.50
2022-10-20T17:13:40.015Z,9.50
2022-10-20T17:16:12.958Z,9.50
2022-10-20T17:18:40.202Z,9.40
2022-10-20T17:21:07.331Z,9.30
2022-10-20T17:23:40.107Z,9.30
2022-10-20T17:26:14.584Z,9.10
2022-10-20T17:28:41.498Z,9.00
2022-10-20T17:31:11.047Z,9.00
2022-10-20T17:33:39.283Z,8.90
2022-10-20T17:36:07.801Z,8.80
2022-10-20T17:38:35.559Z,8.80
2022-10-20T17:41:07.591Z,8.70
2022-10-20T17:43:34.647Z,8.60
2022-10-20T17:46:04.516Z,8.60
2022-10-20T17:48:32.108Z,8.40
2022-10-20T17:51:23.244Z,8.40
2022-10-20T17:53:52.458Z,8.30
2022-10-20T17:56:22.076Z,8.20
2022-10-20T17:58:50.823Z,8.20
2022-10-20T18:01:23.522Z,8.10
2022-10-20T18:04:20.118Z,8.00
2022-10-20T18:06:47.204Z,7.90
2022-10-20T18:09:16.677Z,7.80
2022-10-20T18:11:49.178Z,7.80
2022-10-20T18:14:17.160Z,7.60
2022-10-20T18:16:44.214Z,7.60
2022-10-20T18:19:17.977Z,7.60
2022-10-20T18:21:45.123Z,7.50
2022-10-20T18:24:14.880Z,7.50
2022-10-20T18:26:42.540Z,7.40
2022-10-20T18:29:11.016Z,7.40
2022-10-20T18:31:40.080Z,7.40
2022-10-20T18:34:13.326Z,7.40
2022-10-20T18:36:43.619Z,7.30
2022-10-20T18:39:14.313Z,7.30
2022-10-20T18:41:43.287Z,7.30
2022-10-20T18:44:18.586Z,7.30
2022-10-20T18:46:47.128Z,7.20
2022-10-20T18:49:16.081Z,7.10
2022-10-20T18:51:45.135Z,7.10
2022-10-20T18:54:13.407Z,7.10
2022-10-20T18:56:40.340Z,7.10
2022-10-20T18:59:13.939Z,7.00
2022-10-20T19:01:41.370Z,7.00
2022-10-20T19:04:10.408Z,7.00
2022-10-20T19:06:41.172Z,6.90
2022-10-20T19:09:12.406Z,6.90
2022-10-20T19:11:40.575Z,6.80
2022-10-20T19:14:11.757Z,6.80
2022-10-20T19:16:41.166Z,6.80
2022-10-20T19:19:09.472Z,6.80
2022-10-20T19:21:37.003Z,6.70
2022-10-20T19:24:11.827Z,6.60
2022-10-20T19:26:42.264Z,6.50
2022-10-20T19:29:13.036Z,6.50
2022-10-20T19:31:52.160Z,6.50
2022-10-20T19:34:45.423Z,6.40
2022-10-20T19:37:12.429Z,6.30
2022-10-20T19:39:42.042Z,6.20
2022-10-20T19:42:10.307Z,6.20
2022-10-20T19:44:38.003Z,6.20
2022-10-20T19:47:06.366Z,6.20
2022-10-20T19:49:33.640Z,6.10
2022-10-20T19:52:00.865Z,6.10
2022-10-20T19:54:28.778Z,6.00
2022-10-20T19:56:55.899Z,6.00
2022-10-20T19:59:23.078Z,5.90
2022-10-20T20:01:52.331Z,5.90
2022-10-20T20:04:19.932Z,5.80
2022-10-20T20:06:46.956Z,5.80
2022-10-20T20:09:15.839Z,5.80
2022-10-20T20:11:43.226Z,5.70
2022-10-20T20:14:18.629Z,5.60
2022-10-20T20:16:47.043Z,5.60
2022-10-20T20:19:16.629Z,5.60
2022-10-20T20:21:44.907Z,5.50
2022-10-20T20:24:15.162Z,5.50
2022-10-20T20:26:42.318Z,5.50
2022-10-20T20:29:10.322Z,5.50
2022-10-20T20:31:37.432Z,5.50
2022-10-20T20:34:04.542Z,5.40
2022-10-20T20:36:31.874Z,5.40
2022-10-20T20:38:59.699Z,5.40
2022-10-20T20:41:30.309Z,5.40
2022-10-20T20:43:57.453Z,5.40
2022-10-20T20:46:29.037Z,5.30
2022-10-20T20:48:56.801Z,5.30
2022-10-20T20:51:25.327Z,5.20
2022-10-20T20:53:52.222Z,5.30
2022-10-20T20:56:21.979Z,5.30
2022-10-20T20:58:50.439Z,5.20
2022-10-20T21:01:20.892Z,5.20
2022-10-20T21:03:52.398Z,5.20
2022-10-20T21:06:25.774Z,5.10
2022-10-20T21:09:01.375Z,5.10
2022-10-20T21:11:29.322Z,5.10
2022-10-20T21:13:59.109Z,5.10
2022-10-20T21:16:34.999Z,5.00
2022-10-20T21:19:05.396Z,5.00
2022-10-20T21:21:35.196Z,5.00
2022-10-20T21:24:03.999Z,5.00
2022-10-20T21:26:31.914Z,4.90
2022-10-20T21:28:59.320Z,4.90
2022-10-20T21:31:27.623Z,4.90
2022-10-20T21:34:00.332Z,4.90
2022-10-20T21:36:29.688Z,4.90
2022-10-20T21:38:56.763Z,4.80
2022-10-20T21:41:26.096Z,4.80
2022-10-20T21:43:55.162Z,4.80
2022-10-20T21:46:25.477Z,4.80
2022-10-20T21:49:00.850Z,4.70
2022-10-20T21:51:34.053Z,4.70
2022-10-20T21:54:06.537Z,4.70
2022-10-20T21:56:38.429Z,4.70
2022-10-20T21:59:06.148Z,4.50
2022-10-20T22:01:33.468Z,4.50
2022-10-20T22:04:00.694Z,4.50
2022-10-20T22:06:28.185Z,4.50
2022-10-20T22:08:58.159Z,4.40
2022-10-20T22:11:26.715Z,4.40
2022-10-20T22:14:12.526Z,4.30
2022-10-20T22:16:41.956Z,4.40
2022-10-20T22:19:17.631Z,4.40
2022-10-20T22:21:47.047Z,4.40
2022-10-20T22:24:15.494Z,4.40
2022-10-20T22:26:42.842Z,4.30
2022-10-20T22:29:11.144Z,4.30
2022-10-20T22:31:39.599Z,4.30
2022-10-20T22:34:06.949Z,4.30
2022-10-20T22:36:52.428Z,4.20
2022-10-20T22:39:19.600Z,4.20
2022-10-20T22:41:46.654Z,4.10
2022-10-20T22:44:13.973Z,4.10
2022-10-20T22:46:41.025Z,4.10
2022-10-20T22:49:13.290Z,4.10
2022-10-20T22:51:40.664Z,4.10
2022-10-20T22:54:08.348Z,4.00
2022-10-20T22:56:35.397Z,4.00
2022-10-20T22:59:02.751Z,3.90
2022-10-20T23:01:29.866Z,3.90
2022-10-20T23:03:57.222Z,3.90
2022-10-20T23:06:26.048Z,3.80
2022-10-20T23:08:55.424Z,3.70
2022-10-20T23:11:23.183Z,3.70
2022-10-20T23:13:51.408Z,3.70
2022-10-20T23:16:18.875Z,3.60
2022-10-20T23:18:46.420Z,3.70
2022-10-20T23:21:14.547Z,3.70
2022-10-20T23:23:42.004Z,3.70
2022-10-20T23:26:09.666Z,3.70
2022-10-20T23:28:38.184Z,3.60
2022-10-20T23:31:13.220Z,3.60
2022-10-20T23:33:41.960Z,3.60
2022-10-20T23:36:10.142Z,3.60
2022-10-20T23:38:37.539Z,3.60
2022-10-20T23:41:05.045Z,3.60
2022-10-20T23:43:32.732Z,3.50
2022-10-20T23:46:00.325Z,3.50
2022-10-20T23:48:27.989Z,3.40
2022-10-20T23:50:55.138Z,3.40
2022-10-20T23:53:22.176Z,3.40
2022-10-20T23:55:49.235Z,3.40
2022-10-20T23:58:16.342Z,3.40
